首页
METAR-TAF:

METAR-TAF

机场 :

西安, 中华人民共和国

西安咸阳国际机场

纬度: 34-26N, 经度: 108-45E, 海拔: 479米

当前天气观测

该预报发布于10分钟前的00:00 UTC
风速10节,风向东转东北
温度 1°C
湿度 55%
气压 1024 hPa
能見度: 8000

METAR: ZLXY 250000Z 06005MPS 8000 NSC 01/M07 Q1024 NOSIG

时间: 08:10 (00:10 UTC)

预报

该预报发布于5小时和2分钟前的19:08 UTC
预报有效从25日的 00点(UTC)到 25日的 24点(UTC)
风速6节,风向东转东北
能見度: 3000

TAF: ZLXY 241908Z 2500/2524 06003MPS 3000 HZ NSC TX16/2508Z TN01/2523Z

超过4000个机场的气象观测和天气预报(METAR&TAF报告)。

可查询的气象台以黄色和红色小点在地图上表示。

将鼠标移到小点上方,可查看气象台名称。

然后点击查看天气观测和预报。

如需切换地图:点击带黑十字的绿色按钮放大地图;点击带横线的绿色按钮缩小地图;或者点击绿色箭头查看邻近地区的地图。


METAR-TAF: